Terminal Aerodrome Forecast
Issued by NWS

Current Version | Previous Version | Text Only | Print | Product List | Glossary Off
Versions: 1 2 3 4 5 6 7 8 9 10 11 12 13 14 15 16 17 18 19 20 21 22

000
FTUS41 KILN 272213 AAA
TAFLUK
TAF AMD
KLUK 272213Z 2722/2818 07003KT P6SM VCSH SCT025 BKN040
     FM280000 07004KT P6SM VCSH BKN040
     FM280200 07003KT 4SM BR SCT040 BKN100
     FM280800 00000KT 1SM BR FEW020 SCT250
      TEMPO 2810/2812 1/2SM FG SCT002
     FM281300 VRB03KT P6SM FEW020 SCT250=

USA.gov is the U.S. government's official web portal to all federal, state and local government web resources and services.